PAL737 RPVE-RPLL
Flight info
| Callsign | PAL737 |
|---|---|
| Flight time | N/A |
| Altitude | 22000 |
| Route | MINOR B473 LAIYA LAIYA1A |
| Aircraft | B738/M-SABDFGRVYL/LB2 |
Departure
| Time | N/A |
|---|---|
| Airport | Godofredo P. Ramos Airport (RPVE) |
Arrival
| Time | 2026-05-04 13:34 |
|---|---|
| Airport | Ninoy Aquino International Airport (RPLL) |
| Time | Latitude | Longitude | Altitude | Speed | Heading |
|---|---|---|---|---|---|
| 2026-05-04 12:59 | 12.55520 | 122.10757 | 22000 ft | 413 kts | 326° |
| 2026-05-04 12:59 | 12.57695 | 122.09242 | 21999 ft | 413 kts | 326° |
| 2026-05-04 12:59 | 12.60002 | 122.07635 | 22000 ft | 412 kts | 326° |
| 2026-05-04 12:59 | 12.62296 | 122.06036 | 22001 ft | 412 kts | 326° |
| 2026-05-04 13:00 | 12.64420 | 122.04555 | 22001 ft | 412 kts | 326° |
| 2026-05-04 13:00 | 12.66775 | 122.02914 | 22001 ft | 412 kts | 326° |
| 2026-05-04 13:00 | 12.69121 | 122.01278 | 22001 ft | 412 kts | 326° |
| 2026-05-04 13:00 | 12.71484 | 121.99630 | 22001 ft | 412 kts | 326° |
| 2026-05-04 13:01 | 12.73813 | 121.98005 | 22001 ft | 412 kts | 326° |
| 2026-05-04 13:01 | 12.76180 | 121.96353 | 22001 ft | 412 kts | 326° |
| 2026-05-04 13:01 | 12.78524 | 121.94717 | 22001 ft | 412 kts | 326° |
| 2026-05-04 13:01 | 12.80835 | 121.93103 | 22001 ft | 412 kts | 326° |
| 2026-05-04 13:02 | 12.83155 | 121.91483 | 22001 ft | 412 kts | 326° |
| 2026-05-04 13:02 | 12.85460 | 121.89874 | 22001 ft | 412 kts | 326° |
| 2026-05-04 13:02 | 12.87837 | 121.88213 | 22001 ft | 412 kts | 326° |
| 2026-05-04 13:02 | 12.90182 | 121.86574 | 22001 ft | 412 kts | 326° |
| 2026-05-04 13:03 | 12.92539 | 121.84926 | 22001 ft | 412 kts | 326° |
| 2026-05-04 13:03 | 12.94903 | 121.83274 | 22001 ft | 412 kts | 326° |
| 2026-05-04 13:03 | 12.97259 | 121.81626 | 22001 ft | 412 kts | 326° |
| 2026-05-04 13:03 | 12.99625 | 121.79971 | 22001 ft | 412 kts | 326° |
| 2026-05-04 13:04 | 13.01984 | 121.78321 | 22001 ft | 412 kts | 326° |
| 2026-05-04 13:04 | 13.04336 | 121.76675 | 22001 ft | 412 kts | 326° |
| 2026-05-04 13:04 | 13.06699 | 121.75021 | 22001 ft | 412 kts | 326° |
| 2026-05-04 13:04 | 13.09081 | 121.73354 | 22001 ft | 412 kts | 326° |
| 2026-05-04 13:05 | 13.11432 | 121.71707 | 22001 ft | 412 kts | 326° |
| 2026-05-04 13:05 | 13.13782 | 121.70061 | 22001 ft | 412 kts | 326° |
| 2026-05-04 13:05 | 13.16009 | 121.68501 | 22001 ft | 412 kts | 326° |
| 2026-05-04 13:05 | 13.18329 | 121.66876 | 22001 ft | 412 kts | 326° |
| 2026-05-04 13:06 | 13.20704 | 121.65210 | 22001 ft | 412 kts | 326° |
| 2026-05-04 13:06 | 13.23054 | 121.63563 | 22001 ft | 412 kts | 326° |
| 2026-05-04 13:06 | 13.25405 | 121.61914 | 22001 ft | 412 kts | 326° |
| 2026-05-04 13:06 | 13.27765 | 121.60259 | 21998 ft | 404 kts | 326° |
| 2026-05-04 13:07 | 13.30024 | 121.58674 | 21996 ft | 386 kts | 326° |
| 2026-05-04 13:07 | 13.32175 | 121.57164 | 21998 ft | 369 kts | 326° |
| 2026-05-04 13:07 | 13.34223 | 121.55727 | 21999 ft | 354 kts | 326° |
| 2026-05-04 13:07 | 13.36233 | 121.54315 | 21983 ft | 342 kts | 326° |
| 2026-05-04 13:08 | 13.38189 | 121.52941 | 21866 ft | 343 kts | 326° |
| 2026-05-04 13:08 | 13.40160 | 121.51556 | 21708 ft | 346 kts | 326° |
| 2026-05-04 13:08 | 13.42118 | 121.50181 | 21512 ft | 346 kts | 326° |
| 2026-05-04 13:08 | 13.44061 | 121.48816 | 21324 ft | 344 kts | 326° |
| 2026-05-04 13:09 | 13.45983 | 121.47466 | 21133 ft | 342 kts | 326° |
| 2026-05-04 13:09 | 13.47911 | 121.46112 | 20937 ft | 341 kts | 326° |
| 2026-05-04 13:09 | 13.49854 | 121.44746 | 20739 ft | 340 kts | 326° |
| 2026-05-04 13:09 | 13.51727 | 121.43429 | 20467 ft | 341 kts | 326° |
| 2026-05-04 13:10 | 13.53559 | 121.42139 | 20161 ft | 339 kts | 326° |
| 2026-05-04 13:10 | 13.55507 | 121.40769 | 19833 ft | 336 kts | 326° |
| 2026-05-04 13:10 | 13.57234 | 121.39554 | 19541 ft | 333 kts | 326° |
| 2026-05-04 13:10 | 13.59003 | 121.38309 | 19240 ft | 332 kts | 326° |
| 2026-05-04 13:11 | 13.60819 | 121.37030 | 18931 ft | 330 kts | 326° |
| 2026-05-04 13:11 | 13.62694 | 121.35710 | 18610 ft | 329 kts | 326° |
| 2026-05-04 13:11 | 13.64526 | 121.34421 | 18295 ft | 328 kts | 325° |
| 2026-05-04 13:11 | 13.66321 | 121.33156 | 17984 ft | 326 kts | 325° |
| 2026-05-04 13:12 | 13.68062 | 121.31930 | 17682 ft | 324 kts | 325° |
| 2026-05-04 13:12 | 13.69767 | 121.30728 | 17384 ft | 323 kts | 325° |
| 2026-05-04 13:12 | 13.71477 | 121.29523 | 17084 ft | 321 kts | 325° |
| 2026-05-04 13:12 | 13.73216 | 121.28297 | 16777 ft | 320 kts | 325° |
| 2026-05-04 13:13 | 13.74930 | 121.27089 | 16473 ft | 318 kts | 325° |
| 2026-05-04 13:13 | 13.76722 | 121.25825 | 16154 ft | 317 kts | 325° |
| 2026-05-04 13:13 | 13.78481 | 121.24585 | 15840 ft | 315 kts | 325° |
| 2026-05-04 13:13 | 13.80218 | 121.23360 | 15528 ft | 314 kts | 325° |
| 2026-05-04 13:14 | 13.81906 | 121.22169 | 15223 ft | 312 kts | 325° |
| 2026-05-04 13:14 | 13.83620 | 121.20959 | 14912 ft | 311 kts | 325° |
| 2026-05-04 13:14 | 13.85259 | 121.19803 | 14614 ft | 310 kts | 325° |
| 2026-05-04 13:14 | 13.86968 | 121.18597 | 14301 ft | 308 kts | 325° |
| 2026-05-04 13:15 | 13.88576 | 121.17461 | 14005 ft | 307 kts | 325° |
| 2026-05-04 13:15 | 13.90220 | 121.16300 | 13701 ft | 305 kts | 325° |
| 2026-05-04 13:15 | 13.91850 | 121.15150 | 13399 ft | 304 kts | 325° |
| 2026-05-04 13:15 | 13.93464 | 121.14010 | 13097 ft | 303 kts | 325° |
| 2026-05-04 13:16 | 13.95067 | 121.12878 | 12797 ft | 301 kts | 325° |
| 2026-05-04 13:16 | 13.96786 | 121.11663 | 12474 ft | 300 kts | 325° |
| 2026-05-04 13:16 | 13.98411 | 121.10515 | 12166 ft | 298 kts | 325° |
| 2026-05-04 13:16 | 13.99984 | 121.09403 | 11868 ft | 297 kts | 325° |
| 2026-05-04 13:17 | 14.01585 | 121.08271 | 11562 ft | 296 kts | 325° |
| 2026-05-04 13:17 | 14.03158 | 121.07159 | 11260 ft | 294 kts | 325° |
| 2026-05-04 13:17 | 14.04857 | 121.05958 | 10798 ft | 296 kts | 325° |
| 2026-05-04 13:17 | 14.06541 | 121.04768 | 10411 ft | 295 kts | 325° |
| 2026-05-04 13:18 | 14.08162 | 121.03621 | 10073 ft | 292 kts | 325° |
| 2026-05-04 13:18 | 14.09801 | 121.02461 | 9701 ft | 290 kts | 325° |
| 2026-05-04 13:18 | 14.11340 | 121.01372 | 9283 ft | 289 kts | 325° |
| 2026-05-04 13:18 | 14.12870 | 121.00290 | 8892 ft | 282 kts | 325° |
| 2026-05-04 13:19 | 14.14342 | 120.99247 | 8527 ft | 273 kts | 325° |
| 2026-05-04 13:19 | 14.15857 | 120.98174 | 8102 ft | 265 kts | 325° |
| 2026-05-04 13:19 | 14.17342 | 120.97124 | 7685 ft | 256 kts | 325° |
| 2026-05-04 13:19 | 14.18752 | 120.96125 | 7267 ft | 249 kts | 325° |
| 2026-05-04 13:20 | 14.20154 | 120.95132 | 6843 ft | 243 kts | 325° |
| 2026-05-04 13:20 | 14.21487 | 120.94189 | 6490 ft | 234 kts | 325° |
| 2026-05-04 13:20 | 14.22760 | 120.93287 | 6208 ft | 231 kts | 325° |
| 2026-05-04 13:20 | 14.23982 | 120.92422 | 5927 ft | 229 kts | 325° |
| 2026-05-04 13:21 | 14.25202 | 120.91558 | 5647 ft | 227 kts | 325° |
| 2026-05-04 13:21 | 14.26469 | 120.90660 | 5351 ft | 223 kts | 325° |
| 2026-05-04 13:21 | 14.27724 | 120.89771 | 5068 ft | 218 kts | 325° |
| 2026-05-04 13:21 | 14.28886 | 120.88948 | 4810 ft | 214 kts | 325° |
| 2026-05-04 13:22 | 14.30096 | 120.88090 | 4537 ft | 211 kts | 325° |
| 2026-05-04 13:22 | 14.31274 | 120.87256 | 4267 ft | 207 kts | 325° |
| 2026-05-04 13:22 | 14.32401 | 120.86457 | 4005 ft | 204 kts | 325° |
| 2026-05-04 13:22 | 14.33533 | 120.85654 | 3738 ft | 202 kts | 325° |
| 2026-05-04 13:23 | 14.34648 | 120.84864 | 3472 ft | 200 kts | 325° |
| 2026-05-04 13:23 | 14.35712 | 120.84115 | 3214 ft | 198 kts | 328° |
| 2026-05-04 13:23 | 14.36878 | 120.83768 | 3042 ft | 190 kts | 7° |
| 2026-05-04 13:23 | 14.37994 | 120.84169 | 3061 ft | 184 kts | 27° |
| 2026-05-04 13:24 | 14.39084 | 120.84750 | 3054 ft | 189 kts | 27° |
| 2026-05-04 13:24 | 14.40174 | 120.85330 | 3053 ft | 189 kts | 27° |
| 2026-05-04 13:24 | 14.41266 | 120.85909 | 3054 ft | 189 kts | 27° |
| 2026-05-04 13:25 | 14.43441 | 120.87061 | 3054 ft | 189 kts | 27° |
| 2026-05-04 13:25 | 14.44507 | 120.87625 | 3054 ft | 189 kts | 27° |
| 2026-05-04 13:25 | 14.45572 | 120.88187 | 3055 ft | 189 kts | 27° |
| 2026-05-04 13:25 | 14.46696 | 120.88780 | 3055 ft | 189 kts | 27° |
| 2026-05-04 13:26 | 14.47829 | 120.89413 | 3048 ft | 189 kts | 35° |
| 2026-05-04 13:26 | 14.48971 | 120.89936 | 3047 ft | 189 kts | 5° |
| 2026-05-04 13:26 | 14.50172 | 120.89584 | 3057 ft | 189 kts | 318° |
| 2026-05-04 13:26 | 14.50732 | 120.88535 | 3059 ft | 190 kts | 274° |
| 2026-05-04 13:27 | 14.50457 | 120.87364 | 3074 ft | 189 kts | 241° |
| 2026-05-04 13:27 | 14.49811 | 120.86292 | 3067 ft | 189 kts | 237° |
| 2026-05-04 13:27 | 14.49106 | 120.85170 | 3064 ft | 189 kts | 237° |
| 2026-05-04 13:27 | 14.48397 | 120.84037 | 3064 ft | 189 kts | 237° |
| 2026-05-04 13:28 | 14.47678 | 120.82886 | 3064 ft | 189 kts | 237° |
| 2026-05-04 13:28 | 14.46972 | 120.81757 | 3064 ft | 189 kts | 237° |
| 2026-05-04 13:28 | 14.46263 | 120.80623 | 3064 ft | 189 kts | 237° |
| 2026-05-04 13:28 | 14.45517 | 120.79505 | 3057 ft | 189 kts | 226° |
| 2026-05-04 13:29 | 14.44434 | 120.78937 | 3058 ft | 189 kts | 186° |
| 2026-05-04 13:29 | 14.43178 | 120.79076 | 3058 ft | 189 kts | 154° |
| 2026-05-04 13:29 | 14.42327 | 120.80062 | 3059 ft | 189 kts | 105° |
| 2026-05-04 13:29 | 14.42254 | 120.81355 | 3073 ft | 189 kts | 87° |
| 2026-05-04 13:30 | 14.42324 | 120.82671 | 3064 ft | 188 kts | 87° |
| 2026-05-04 13:30 | 14.42386 | 120.83987 | 3063 ft | 188 kts | 87° |
| 2026-05-04 13:30 | 14.42447 | 120.85310 | 3063 ft | 188 kts | 86° |
| 2026-05-04 13:30 | 14.42669 | 120.86604 | 3002 ft | 191 kts | 72° |
| 2026-05-04 13:31 | 14.43165 | 120.87857 | 2765 ft | 193 kts | 65° |
| 2026-05-04 13:31 | 14.43737 | 120.89043 | 2481 ft | 190 kts | 62° |
| 2026-05-04 13:31 | 14.44346 | 120.90211 | 2230 ft | 182 kts | 61° |
| 2026-05-04 13:31 | 14.44911 | 120.91258 | 2008 ft | 183 kts | 61° |
| 2026-05-04 13:32 | 14.45504 | 120.92341 | 1766 ft | 184 kts | 60° |
| 2026-05-04 13:32 | 14.46118 | 120.93450 | 1519 ft | 184 kts | 60° |
| 2026-05-04 13:32 | 14.46652 | 120.94411 | 1307 ft | 173 kts | 60° |
| 2026-05-04 13:32 | 14.47221 | 120.95432 | 1079 ft | 161 kts | 60° |
| 2026-05-04 13:33 | 14.47724 | 120.96335 | 889 ft | 154 kts | 60° |
| 2026-05-04 13:33 | 14.48219 | 120.97221 | 698 ft | 154 kts | 60° |
| 2026-05-04 13:33 | 14.48709 | 120.98101 | 508 ft | 153 kts | 60° |
| 2026-05-04 13:33 | 14.49206 | 120.98992 | 315 ft | 153 kts | 60° |
| 2026-05-04 13:34 | 14.49712 | 120.99890 | 142 ft | 152 kts | 60° |
| 2026-05-04 13:34 | 14.50200 | 121.00760 | 33 ft | 136 kts | 60° |
| 2026-05-04 13:34 | 14.50525 | 121.01348 | 40 ft | 69 kts | 60° |
| 2026-05-04 13:34 | 14.50693 | 121.01634 | 46 ft | 45 kts | 51° |
| 2026-05-04 13:35 | 14.50844 | 121.01780 | 49 ft | 13 kts | 32° |
| 2026-05-04 13:35 | 14.50885 | 121.01707 | 50 ft | 15 kts | 240° |
| 2026-05-04 13:35 | 14.50836 | 121.01617 | 49 ft | 14 kts | 238° |
| 2026-05-04 13:36 | 14.50792 | 121.01541 | 50 ft | 12 kts | 242° |
| 2026-05-04 13:36 | 14.50750 | 121.01463 | 48 ft | 13 kts | 240° |
| 2026-05-04 13:36 | 14.50701 | 121.01375 | 46 ft | 14 kts | 243° |
| 2026-05-04 13:36 | 14.50711 | 121.01309 | 46 ft | 9 kts | 313° |
| 2026-05-04 13:37 | 14.50721 | 121.01263 | 45 ft | 7 kts | 243° |
| 2026-05-04 13:37 | 14.50694 | 121.01216 | 44 ft | 8 kts | 236° |
| 2026-05-04 13:37 | 14.50665 | 121.01165 | 42 ft | 5 kts | 247° |
| 2026-05-04 13:37 | 14.50678 | 121.01147 | 42 ft | 3 kts | 332° |
| 2026-05-04 13:38 | 14.50696 | 121.01136 | 42 ft | 0 kts | 329° |